Terminal Aerodrome Forecast
Issued by NWS

Current Version | Previous Version | Text Only | Print | Product List | Glossary Off
Versions: 1 2 3 4 5 6 7 8 9 10 11 12 13 14 15 16 17 18 19 20 21 22 23 24 25 26 27 28 29 30 31 32 33 34 35 36 37 38 39 40 41 42 43

000
FTUS41 KRNK 031328 AAA
TAFLWB
TAF AMD
KLWB 031328Z 0313/0412 00000KT 4SM -SHRA BR SCT008 OVC016
      TEMPO 0314/0315 1 1/2SM SHRA BR OVC008
     FM031800 12005KT 4SM -SHRA BR VCTS BKN015 OVC035CB
     FM032200 VRB04KT 3SM -SHRA BR BKN007 OVC013
     FM040400 VRB03KT 2SM BR VCSH BKN005 OVC012
      TEMPO 0408/0412 1/4SM FG VV001=

USA.gov is the U.S. government's official web portal to all federal, state and local government web resources and services.